Joslin Field Magic Valley Regional Airport
KTWF : now visible

Airfield :











YOU CAN JOIN US ON...

 
LOGIN :

Register | Disclaimer

   EN    FR    IT 

 









Legend :    VFR   Marginal VFR   IFR   Intensive IFR   Very Intensive IFR
Visi :
Ceiling :
>= 8 km
>= 3000ft
5 to 8 km
1000 to 3000 ft
1500m to 5 km
500 to 1000 ft
800 to 1500m
200 to 500 ft
< 800m
< 200 ft
Symbols :   Thunderstorms  Fog  Heavy snow  Heavy precipitations  Wind > 20 kt






- Airport Elevation : 4154 ft
- IATA code : TWF


KTWF - Joslin Field Magic Valley Regional

CURRENT METAR :
  • 211253Z 27011KT 10SM FEW043 SCT060 05/01 A3016 RMK AO2 SLP201 T00500006

EXPIRED METARs :
  • 211153Z 26009KT 10SM BKN060 04/01 A3013 RMK AO2 SLP191 60000 T00440006 10056 20039 53013
  • 211053Z AUTO 24009KT 10SM FEW030 BKN037 04/01 A3011 RMK AO2 SLP181 T00390006

TAF KTWF
Valid from the 21 at 12:00 until the 22 at 12:00 UTC


211123Z 2112/2212 24010KT P6SM BKN035 OVC050
FM211600 27020G30KT P6SM BKN050 BKN100
FM220300 23012KT P6SM BKN120



MET'MAP, your aeronautical weather chart ! - Copyright ORBIFLY December 2007 - Disclaimer

ORBIFLY MET'MAP TEAM :

Programming & Development : Alexandra Zaïnal
Concept & Development : Baudouin d'Aumeries
Co-Development & Prog : Marc-Olivier Méhu
Technical & hardware support : Manuel Goepfert

Contact : metmap@orbifly.com




SOURCES & CREDITS :

   NOAA       Earth
Advisory